Flight Track Log - Related Links

Times and Time Zones

All times are in EDT time to prevent confusion due to time zone crossing. See the N118JV flight status page for this flight to view local times or setup timezone preferences in your user account.


Time Position Orientation Groundspeed Altitude Reporting Facility
EDT Latitude Longitude Course Direction KTS MPH feet Rate Location/Type
Mon 08:27:21 PM 27.5231 -99.4653 200° South 134 154 1,200  Level Houston Center
Mon 08:28:23 PM 27.4931 -99.4972 223° Southwest 147 169 2,600 1,306 Climbing Houston Center
Mon 08:29:25 PM 27.4625 -99.5269 221° Southwest 147 169 3,900 1,403 Climbing Houston Center
Mon 08:30:27 PM 27.4303 -99.5556 218° Southwest 147 169 5,500 1,548 Climbing Houston Center
Mon 08:32:00 PM 27.3197 -99.5921 200° South  Level FlightAware Approximate
Mon 08:32:00 PM 27.3544 -99.5891 200° South  Level Estimated
Mon 08:39:00 PM 27.0117 -99.7399 200° South  Level Estimated
Mon 08:40:00 PM 26.9609 -99.7248 165° South  Level FlightAware Approximate
Mon 08:41:00 PM 26.9125 -99.7477 196° South  Level Estimated
Mon 08:42:00 PM 26.8611 -99.7605 192° South  Level FlightAware Approximate
Mon 08:43:00 PM 26.8098 -99.7732 192° South  Level FlightAware Approximate
Mon 08:44:00 PM 26.7584 -99.7859 192° South  Level FlightAware Approximate
Mon 08:45:00 PM 26.7071 -99.7986 192° South  Level FlightAware Approximate
Mon 08:46:00 PM 26.6558 -99.8113 192° South  Level FlightAware Approximate
Mon 08:47:00 PM 26.6045 -99.8240 192° South  Level FlightAware Approximate
Mon 08:48:00 PM 26.5575 -99.8504 198° South  Level Estimated
Mon 08:49:00 PM 26.5065 -99.8650 194° South  Level FlightAware Approximate
Mon 08:50:00 PM 26.4556 -99.8795 194° South  Level FlightAware Approximate
Mon 08:51:00 PM 26.4095 -99.9076 195° South  Level Estimated
Mon 08:52:00 PM 26.3579 -99.9190 191° South  Level FlightAware Approximate
Mon 08:53:00 PM 26.3063 -99.9303 191° South  Level FlightAware Approximate
Mon 08:54:00 PM 26.2547 -99.9416 191° South  Level FlightAware Approximate
Mon 08:55:00 PM 26.2113 -99.9747 197° South  Level Estimated
Mon 08:56:00 PM 26.1597 -99.9859 191° South  Level FlightAware Approximate
Mon 08:57:00 PM 26.1081 -99.9970 191° South  Level FlightAware Approximate
Mon 08:58:00 PM 26.0565 -100.0081 191° South  Level FlightAware Approximate
Mon 08:59:00 PM 26.0208 -100.0510 193° South  Level Estimated
Mon 09:00:00 PM 25.9851 -100.0940 197° South  Level Estimated
Mon 09:01:00 PM 25.9333 -100.0835 170° South  Level FlightAware Approximate
Mon 09:02:00 PM 25.9102 -100.1360 200° South  Level Estimated
Mon 09:03:00 PM 25.8589 -100.1231 167° South  Level FlightAware Approximate
Mon 09:04:00 PM 25.8623 -100.1814 310° West  Level Estimated
Mon 09:05:00 PM 25.8257 -100.1847 299° West  Level FlightAware Approximate
Mon 09:06:00 PM 25.8518 -100.2352 318° Northwest  Level FlightAware Approximate
Mon 09:07:00 PM 25.8667 -100.2500 318° Northwest  Level FlightAware Approximate
Mon 09:08:00 PM 25.8656 -100.2372 318° Northwest  Level Estimated
Mon 09:09:00 PM 25.8656 -100.2372 318° Northwest  Level Estimated
Mon 09:10:00 PM 25.8656 -100.2372 318° Northwest  Level Estimated
Mon 09:11:00 PM 25.8656 -100.2372 318° Northwest  Level Estimated
Mon 09:12:00 PM 25.8656 -100.2372 318° Northwest  Level Estimated
Mon 09:13:00 PM 25.8656 -100.2372 318° Northwest  Level Estimated
Mon 09:14:00 PM 25.8656 -100.2372 318° Northwest  Level Estimated
Mon 09:15:00 PM 25.8656 -100.2372 318° Northwest  Level Estimated
Mon 09:16:00 PM 25.8656 -100.2372 318° Northwest  Level Estimated
Mon 09:17:00 PM 25.8656 -100.2372 318° Northwest  Level Estimated
Mon 09:18:00 PM 25.8656 -100.2372 318° Northwest  Level Estimated
Mon 09:19:00 PM 25.8656 -100.2372 318° Northwest  Level Estimated
Mon 09:20:00 PM 25.8656 -100.2372 318° Northwest  Level Estimated
Mon 09:21:00 PM 25.8656 -100.2372 318° Northwest  Level Estimated
Mon 09:22:00 PM 25.8656 -100.2372 318° Northwest  Level Estimated

Login

Don't have an account? Register now (free) for customized features, flight alerts, and more!